sensor_id;sensor_type;location;lat;lon;timestamp;P1;durP1;ratioP1;P2;durP2;ratioP2
76935;SDS011;65881;52.438;16.744;2024-01-07T00:01:58;7.70;;;5.18;;
76935;SDS011;65881;52.438;16.744;2024-01-07T00:04:24;11.25;;;5.13;;
76935;SDS011;65881;52.438;16.744;2024-01-07T00:06:49;7.57;;;4.95;;
76935;SDS011;65881;52.438;16.744;2024-01-07T00:09:15;7.20;;;5.10;;
76935;SDS011;65881;52.438;16.744;2024-01-07T00:11:44;7.80;;;5.70;;
76935;SDS011;65881;52.438;16.744;2024-01-07T00:14:11;6.70;;;4.60;;
76935;SDS011;65881;52.438;16.744;2024-01-07T00:16:40;7.05;;;4.57;;
76935;SDS011;65881;52.438;16.744;2024-01-07T00:19:05;6.28;;;3.75;;
76935;SDS011;65881;52.438;16.744;2024-01-07T00:21:33;5.70;;;4.03;;
76935;SDS011;65881;52.438;16.744;2024-01-07T00:23:59;5.88;;;3.78;;
76935;SDS011;65881;52.438;16.744;2024-01-07T00:26:25;7.95;;;5.18;;
76935;SDS011;65881;52.438;16.744;2024-01-07T00:28:51;8.98;;;4.85;;
76935;SDS011;65881;52.438;16.744;2024-01-07T00:31:16;6.88;;;5.25;;
76935;SDS011;65881;52.438;16.744;2024-01-07T00:33:42;6.65;;;4.20;;
76935;SDS011;65881;52.438;16.744;2024-01-07T00:36:08;5.75;;;3.65;;
76935;SDS011;65881;52.438;16.744;2024-01-07T00:38:33;7.30;;;4.25;;
76935;SDS011;65881;52.438;16.744;2024-01-07T00:40:59;9.07;;;5.18;;
76935;SDS011;65881;52.438;16.744;2024-01-07T00:43:24;8.63;;;4.53;;
76935;SDS011;65881;52.438;16.744;2024-01-07T00:45:50;5.32;;;3.67;;
76935;SDS011;65881;52.438;16.744;2024-01-07T00:48:15;6.50;;;3.53;;
76935;SDS011;65881;52.438;16.744;2024-01-07T00:50:42;6.65;;;4.55;;
76935;SDS011;65881;52.438;16.744;2024-01-07T00:53:07;5.03;;;3.85;;
76935;SDS011;65881;52.438;16.744;2024-01-07T00:55:33;6.22;;;2.92;;
76935;SDS011;65881;52.438;16.744;2024-01-07T00:58:00;5.57;;;3.17;;
76935;SDS011;65881;52.438;16.744;2024-01-07T01:00:26;4.50;;;3.35;;
76935;SDS011;65881;52.438;16.744;2024-01-07T01:02:52;5.97;;;3.30;;
76935;SDS011;65881;52.438;16.744;2024-01-07T01:05:18;6.85;;;3.25;;
76935;SDS011;65881;52.438;16.744;2024-01-07T01:07:43;6.20;;;3.42;;
76935;SDS011;65881;52.438;16.744;2024-01-07T01:10:09;5.53;;;4.05;;
76935;SDS011;65881;52.438;16.744;2024-01-07T01:12:35;6.35;;;3.60;;
76935;SDS011;65881;52.438;16.744;2024-01-07T01:15:00;6.78;;;3.33;;
76935;SDS011;65881;52.438;16.744;2024-01-07T01:17:26;6.95;;;4.10;;
76935;SDS011;65881;52.438;16.744;2024-01-07T01:19:52;4.20;;;3.60;;
76935;SDS011;65881;52.438;16.744;2024-01-07T01:22:18;5.43;;;3.70;;
76935;SDS011;65881;52.438;16.744;2024-01-07T01:24:43;4.75;;;3.28;;
76935;SDS011;65881;52.438;16.744;2024-01-07T01:27:11;5.97;;;3.50;;
76935;SDS011;65881;52.438;16.744;2024-01-07T01:29:37;6.80;;;3.95;;
76935;SDS011;65881;52.438;16.744;2024-01-07T01:32:02;5.55;;;3.80;;
76935;SDS011;65881;52.438;16.744;2024-01-07T01:34:28;9.18;;;4.57;;
76935;SDS011;65881;52.438;16.744;2024-01-07T01:36:54;6.15;;;3.70;;
76935;SDS011;65881;52.438;16.744;2024-01-07T01:39:19;6.88;;;3.92;;
76935;SDS011;65881;52.438;16.744;2024-01-07T01:41:45;6.60;;;4.38;;
76935;SDS011;65881;52.438;16.744;2024-01-07T01:44:10;6.15;;;3.85;;
76935;SDS011;65881;52.438;16.744;2024-01-07T01:46:36;7.40;;;3.45;;
76935;SDS011;65881;52.438;16.744;2024-01-07T01:49:02;8.57;;;5.45;;
76935;SDS011;65881;52.438;16.744;2024-01-07T01:51:28;6.10;;;4.30;;
76935;SDS011;65881;52.438;16.744;2024-01-07T01:53:54;3.83;;;2.90;;
76935;SDS011;65881;52.438;16.744;2024-01-07T01:56:21;5.05;;;2.90;;
76935;SDS011;65881;52.438;16.744;2024-01-07T01:58:48;4.82;;;3.45;;
76935;SDS011;65881;52.438;16.744;2024-01-07T02:01:14;7.10;;;4.57;;
76935;SDS011;65881;52.438;16.744;2024-01-07T02:03:40;6.05;;;3.75;;
76935;SDS011;65881;52.438;16.744;2024-01-07T02:06:06;5.25;;;4.03;;
76935;SDS011;65881;52.438;16.744;2024-01-07T02:08:32;5.43;;;4.05;;
76935;SDS011;65881;52.438;16.744;2024-01-07T02:10:58;5.93;;;3.38;;
76935;SDS011;65881;52.438;16.744;2024-01-07T02:13:38;5.53;;;3.92;;
76935;SDS011;65881;52.438;16.744;2024-01-07T02:16:04;5.07;;;3.50;;
76935;SDS011;65881;52.438;16.744;2024-01-07T02:18:30;6.53;;;4.03;;
76935;SDS011;65881;52.438;16.744;2024-01-07T02:20:56;6.90;;;4.25;;
76935;SDS011;65881;52.438;16.744;2024-01-07T02:23:21;4.45;;;2.80;;
76935;SDS011;65881;52.438;16.744;2024-01-07T02:25:47;3.15;;;2.85;;
76935;SDS011;65881;52.438;16.744;2024-01-07T02:28:12;3.65;;;3.05;;
76935;SDS011;65881;52.438;16.744;2024-01-07T02:30:38;5.50;;;2.80;;
76935;SDS011;65881;52.438;16.744;2024-01-07T02:33:03;3.38;;;2.72;;
76935;SDS011;65881;52.438;16.744;2024-01-07T02:35:29;4.20;;;3.15;;
76935;SDS011;65881;52.438;16.744;2024-01-07T02:37:55;6.50;;;3.75;;
76935;SDS011;65881;52.438;16.744;2024-01-07T02:40:20;6.00;;;4.10;;
76935;SDS011;65881;52.438;16.744;2024-01-07T02:42:46;5.10;;;3.58;;
76935;SDS011;65881;52.438;16.744;2024-01-07T02:45:12;6.78;;;3.67;;
76935;SDS011;65881;52.438;16.744;2024-01-07T02:47:37;5.72;;;3.30;;
76935;SDS011;65881;52.438;16.744;2024-01-07T02:50:03;3.50;;;3.03;;
76935;SDS011;65881;52.438;16.744;2024-01-07T02:52:29;4.82;;;3.15;;
76935;SDS011;65881;52.438;16.744;2024-01-07T02:54:54;4.68;;;3.65;;
76935;SDS011;65881;52.438;16.744;2024-01-07T02:57:20;6.18;;;3.10;;
76935;SDS011;65881;52.438;16.744;2024-01-07T02:59:46;5.68;;;3.65;;
76935;SDS011;65881;52.438;16.744;2024-01-07T03:02:11;7.03;;;3.75;;
76935;SDS011;65881;52.438;16.744;2024-01-07T03:04:37;4.25;;;2.65;;
76935;SDS011;65881;52.438;16.744;2024-01-07T03:07:02;4.78;;;2.53;;
76935;SDS011;65881;52.438;16.744;2024-01-07T03:09:28;4.70;;;3.22;;
76935;SDS011;65881;52.438;16.744;2024-01-07T03:11:54;4.88;;;3.05;;
76935;SDS011;65881;52.438;16.744;2024-01-07T03:14:19;7.10;;;3.58;;
76935;SDS011;65881;52.438;16.744;2024-01-07T03:16:46;8.00;;;4.03;;
76935;SDS011;65881;52.438;16.744;2024-01-07T03:19:12;4.95;;;2.95;;
76935;SDS011;65881;52.438;16.744;2024-01-07T03:21:37;5.88;;;3.60;;
76935;SDS011;65881;52.438;16.744;2024-01-07T03:24:04;7.22;;;3.40;;
76935;SDS011;65881;52.438;16.744;2024-01-07T03:26:30;3.97;;;3.03;;
76935;SDS011;65881;52.438;16.744;2024-01-07T03:28:57;5.50;;;3.42;;
76935;SDS011;65881;52.438;16.744;2024-01-07T03:31:25;5.25;;;3.10;;
76935;SDS011;65881;52.438;16.744;2024-01-07T03:33:50;7.65;;;3.65;;
76935;SDS011;65881;52.438;16.744;2024-01-07T03:36:16;6.07;;;4.13;;
76935;SDS011;65881;52.438;16.744;2024-01-07T03:38:42;4.75;;;3.53;;
76935;SDS011;65881;52.438;16.744;2024-01-07T03:41:07;6.18;;;3.85;;
76935;SDS011;65881;52.438;16.744;2024-01-07T03:43:33;5.20;;;3.85;;
76935;SDS011;65881;52.438;16.744;2024-01-07T03:45:59;4.90;;;3.38;;
76935;SDS011;65881;52.438;16.744;2024-01-07T03:48:25;3.88;;;3.22;;
76935;SDS011;65881;52.438;16.744;2024-01-07T03:50:51;6.35;;;4.20;;
76935;SDS011;65881;52.438;16.744;2024-01-07T03:53:17;7.53;;;4.90;;
76935;SDS011;65881;52.438;16.744;2024-01-07T03:55:43;5.65;;;2.90;;
76935;SDS011;65881;52.438;16.744;2024-01-07T03:58:09;5.72;;;4.30;;
76935;SDS011;65881;52.438;16.744;2024-01-07T04:00:35;5.63;;;4.45;;
76935;SDS011;65881;52.438;16.744;2024-01-07T04:03:01;6.93;;;3.83;;
76935;SDS011;65881;52.438;16.744;2024-01-07T04:05:27;6.28;;;4.72;;
76935;SDS011;65881;52.438;16.744;2024-01-07T04:07:54;4.97;;;3.97;;
76935;SDS011;65881;52.438;16.744;2024-01-07T04:10:20;3.88;;;2.83;;
76935;SDS011;65881;52.438;16.744;2024-01-07T04:12:45;4.97;;;3.60;;
76935;SDS011;65881;52.438;16.744;2024-01-07T04:15:11;5.43;;;3.97;;
76935;SDS011;65881;52.438;16.744;2024-01-07T04:17:37;5.85;;;4.00;;
76935;SDS011;65881;52.438;16.744;2024-01-07T04:20:03;3.90;;;2.90;;
76935;SDS011;65881;52.438;16.744;2024-01-07T04:22:29;9.23;;;4.85;;
76935;SDS011;65881;52.438;16.744;2024-01-07T04:24:55;3.60;;;3.17;;
76935;SDS011;65881;52.438;16.744;2024-01-07T04:27:20;5.57;;;4.00;;
76935;SDS011;65881;52.438;16.744;2024-01-07T04:29:46;5.28;;;3.47;;
76935;SDS011;65881;52.438;16.744;2024-01-07T04:32:12;4.97;;;3.55;;
76935;SDS011;65881;52.438;16.744;2024-01-07T04:34:37;5.85;;;3.05;;
76935;SDS011;65881;52.438;16.744;2024-01-07T04:37:03;5.93;;;3.67;;
76935;SDS011;65881;52.438;16.744;2024-01-07T04:39:28;5.28;;;3.35;;
76935;SDS011;65881;52.438;16.744;2024-01-07T04:41:54;6.60;;;3.65;;
76935;SDS011;65881;52.438;16.744;2024-01-07T04:44:19;4.05;;;3.40;;
76935;SDS011;65881;52.438;16.744;2024-01-07T04:46:47;6.55;;;3.67;;
76935;SDS011;65881;52.438;16.744;2024-01-07T04:49:12;5.57;;;3.95;;
76935;SDS011;65881;52.438;16.744;2024-01-07T04:51:38;8.90;;;4.60;;
76935;SDS011;65881;52.438;16.744;2024-01-07T04:54:04;4.20;;;3.40;;
76935;SDS011;65881;52.438;16.744;2024-01-07T04:56:30;6.97;;;4.22;;
76935;SDS011;65881;52.438;16.744;2024-01-07T04:58:56;6.05;;;3.95;;
76935;SDS011;65881;52.438;16.744;2024-01-07T05:01:22;8.65;;;4.47;;
76935;SDS011;65881;52.438;16.744;2024-01-07T05:03:48;5.10;;;3.88;;
76935;SDS011;65881;52.438;16.744;2024-01-07T05:06:15;5.80;;;4.28;;
76935;SDS011;65881;52.438;16.744;2024-01-07T05:08:41;7.00;;;4.80;;
76935;SDS011;65881;52.438;16.744;2024-01-07T05:11:07;5.78;;;4.15;;
76935;SDS011;65881;52.438;16.744;2024-01-07T05:13:33;6.60;;;4.15;;
76935;SDS011;65881;52.438;16.744;2024-01-07T05:15:59;6.70;;;4.85;;
76935;SDS011;65881;52.438;16.744;2024-01-07T05:18:25;5.25;;;3.83;;
76935;SDS011;65881;52.438;16.744;2024-01-07T05:20:51;11.20;;;4.65;;
76935;SDS011;65881;52.438;16.744;2024-01-07T05:23:16;5.47;;;3.97;;
76935;SDS011;65881;52.438;16.744;2024-01-07T05:25:43;10.30;;;4.47;;
76935;SDS011;65881;52.438;16.744;2024-01-07T05:28:09;4.53;;;3.85;;
76935;SDS011;65881;52.438;16.744;2024-01-07T05:30:39;5.20;;;4.05;;
76935;SDS011;65881;52.438;16.744;2024-01-07T05:33:05;6.78;;;4.07;;
76935;SDS011;65881;52.438;16.744;2024-01-07T05:35:30;5.10;;;3.90;;
76935;SDS011;65881;52.438;16.744;2024-01-07T05:37:57;6.18;;;4.00;;
76935;SDS011;65881;52.438;16.744;2024-01-07T05:40:23;6.07;;;4.53;;
76935;SDS011;65881;52.438;16.744;2024-01-07T05:42:48;8.77;;;4.50;;
76935;SDS011;65881;52.438;16.744;2024-01-07T05:45:14;8.52;;;4.68;;
76935;SDS011;65881;52.438;16.744;2024-01-07T05:47:39;5.88;;;4.50;;
76935;SDS011;65881;52.438;16.744;2024-01-07T05:50:09;11.23;;;5.95;;
76935;SDS011;65881;52.438;16.744;2024-01-07T05:52:35;12.50;;;4.38;;
76935;SDS011;65881;52.438;16.744;2024-01-07T05:55:01;6.90;;;3.83;;
76935;SDS011;65881;52.438;16.744;2024-01-07T05:57:27;10.57;;;5.28;;
76935;SDS011;65881;52.438;16.744;2024-01-07T05:59:52;7.57;;;5.53;;
76935;SDS011;65881;52.438;16.744;2024-01-07T06:02:18;5.93;;;3.97;;
76935;SDS011;65881;52.438;16.744;2024-01-07T06:04:43;8.35;;;5.13;;
76935;SDS011;65881;52.438;16.744;2024-01-07T06:07:09;14.60;;;4.95;;
76935;SDS011;65881;52.438;16.744;2024-01-07T06:09:35;9.35;;;5.45;;
76935;SDS011;65881;52.438;16.744;2024-01-07T06:12:00;8.23;;;5.18;;
76935;SDS011;65881;52.438;16.744;2024-01-07T06:14:26;8.15;;;5.18;;
76935;SDS011;65881;52.438;16.744;2024-01-07T06:16:52;10.48;;;4.28;;
76935;SDS011;65881;52.438;16.744;2024-01-07T06:19:17;12.40;;;5.78;;
76935;SDS011;65881;52.438;16.744;2024-01-07T06:21:44;8.75;;;5.22;;
76935;SDS011;65881;52.438;16.744;2024-01-07T06:24:10;9.50;;;5.85;;
76935;SDS011;65881;52.438;16.744;2024-01-07T06:26:36;8.68;;;5.10;;
76935;SDS011;65881;52.438;16.744;2024-01-07T06:29:02;8.23;;;4.88;;
76935;SDS011;65881;52.438;16.744;2024-01-07T06:31:27;8.18;;;4.50;;
76935;SDS011;65881;52.438;16.744;2024-01-07T06:33:53;10.23;;;5.57;;
76935;SDS011;65881;52.438;16.744;2024-01-07T06:36:22;8.38;;;5.60;;
76935;SDS011;65881;52.438;16.744;2024-01-07T06:38:48;9.00;;;6.07;;
76935;SDS011;65881;52.438;16.744;2024-01-07T06:41:14;10.70;;;5.40;;
76935;SDS011;65881;52.438;16.744;2024-01-07T06:43:40;10.20;;;6.63;;
76935;SDS011;65881;52.438;16.744;2024-01-07T06:46:05;7.55;;;5.43;;
76935;SDS011;65881;52.438;16.744;2024-01-07T06:48:31;9.68;;;6.25;;
76935;SDS011;65881;52.438;16.744;2024-01-07T06:50:57;9.38;;;5.72;;
76935;SDS011;65881;52.438;16.744;2024-01-07T06:53:22;11.82;;;6.50;;
76935;SDS011;65881;52.438;16.744;2024-01-07T06:55:48;7.40;;;5.18;;
76935;SDS011;65881;52.438;16.744;2024-01-07T06:58:14;9.43;;;5.57;;
76935;SDS011;65881;52.438;16.744;2024-01-07T07:00:39;12.15;;;6.95;;
76935;SDS011;65881;52.438;16.744;2024-01-07T07:03:05;6.45;;;5.07;;
76935;SDS011;65881;52.438;16.744;2024-01-07T07:05:31;10.23;;;5.53;;
76935;SDS011;65881;52.438;16.744;2024-01-07T07:07:57;11.40;;;6.05;;
76935;SDS011;65881;52.438;16.744;2024-01-07T07:10:22;10.30;;;6.00;;
76935;SDS011;65881;52.438;16.744;2024-01-07T07:12:48;6.55;;;4.30;;
76935;SDS011;65881;52.438;16.744;2024-01-07T07:15:15;10.70;;;5.50;;
76935;SDS011;65881;52.438;16.744;2024-01-07T07:17:41;9.25;;;5.75;;
76935;SDS011;65881;52.438;16.744;2024-01-07T07:20:08;9.23;;;5.03;;
76935;SDS011;65881;52.438;16.744;2024-01-07T07:22:34;6.90;;;5.95;;
76935;SDS011;65881;52.438;16.744;2024-01-07T07:24:59;9.00;;;5.97;;
76935;SDS011;65881;52.438;16.744;2024-01-07T07:27:25;11.75;;;5.43;;
76935;SDS011;65881;52.438;16.744;2024-01-07T07:29:51;10.93;;;6.65;;
76935;SDS011;65881;52.438;16.744;2024-01-07T07:32:16;8.13;;;6.50;;
76935;SDS011;65881;52.438;16.744;2024-01-07T07:34:42;9.20;;;6.47;;
76935;SDS011;65881;52.438;16.744;2024-01-07T07:37:07;10.57;;;6.53;;
76935;SDS011;65881;52.438;16.744;2024-01-07T07:39:33;12.68;;;6.60;;
76935;SDS011;65881;52.438;16.744;2024-01-07T07:41:59;11.00;;;6.03;;
76935;SDS011;65881;52.438;16.744;2024-01-07T07:44:25;7.45;;;4.55;;
76935;SDS011;65881;52.438;16.744;2024-01-07T07:46:50;10.75;;;6.00;;
76935;SDS011;65881;52.438;16.744;2024-01-07T07:49:16;9.27;;;5.90;;
76935;SDS011;65881;52.438;16.744;2024-01-07T07:51:43;7.25;;;5.22;;
76935;SDS011;65881;52.438;16.744;2024-01-07T07:54:08;9.70;;;6.00;;
76935;SDS011;65881;52.438;16.744;2024-01-07T07:56:34;8.05;;;5.03;;
76935;SDS011;65881;52.438;16.744;2024-01-07T07:59:01;8.45;;;5.07;;
76935;SDS011;65881;52.438;16.744;2024-01-07T08:01:26;9.27;;;5.07;;
76935;SDS011;65881;52.438;16.744;2024-01-07T08:03:52;8.88;;;7.07;;
76935;SDS011;65881;52.438;16.744;2024-01-07T08:06:18;9.57;;;5.70;;
76935;SDS011;65881;52.438;16.744;2024-01-07T08:08:44;10.40;;;5.68;;
76935;SDS011;65881;52.438;16.744;2024-01-07T08:11:10;11.02;;;7.05;;
76935;SDS011;65881;52.438;16.744;2024-01-07T08:13:36;8.90;;;5.65;;
76935;SDS011;65881;52.438;16.744;2024-01-07T08:16:03;8.60;;;5.57;;
76935;SDS011;65881;52.438;16.744;2024-01-07T08:18:29;10.45;;;5.28;;
76935;SDS011;65881;52.438;16.744;2024-01-07T08:20:55;8.80;;;5.95;;
76935;SDS011;65881;52.438;16.744;2024-01-07T08:23:21;7.00;;;5.32;;
76935;SDS011;65881;52.438;16.744;2024-01-07T08:25:47;8.88;;;5.47;;
76935;SDS011;65881;52.438;16.744;2024-01-07T08:28:13;6.57;;;5.03;;
76935;SDS011;65881;52.438;16.744;2024-01-07T08:30:39;6.63;;;4.82;;
76935;SDS011;65881;52.438;16.744;2024-01-07T08:33:04;7.57;;;4.63;;
76935;SDS011;65881;52.438;16.744;2024-01-07T08:35:30;6.22;;;4.40;;
76935;SDS011;65881;52.438;16.744;2024-01-07T08:37:56;8.73;;;5.57;;
76935;SDS011;65881;52.438;16.744;2024-01-07T08:40:21;10.77;;;5.60;;
76935;SDS011;65881;52.438;16.744;2024-01-07T08:42:47;8.82;;;5.07;;
76935;SDS011;65881;52.438;16.744;2024-01-07T08:45:12;8.80;;;5.00;;
76935;SDS011;65881;52.438;16.744;2024-01-07T08:47:38;6.93;;;4.80;;
76935;SDS011;65881;52.438;16.744;2024-01-07T08:50:05;6.00;;;3.90;;
76935;SDS011;65881;52.438;16.744;2024-01-07T08:52:30;7.13;;;4.50;;
76935;SDS011;65881;52.438;16.744;2024-01-07T08:54:56;6.38;;;4.32;;
76935;SDS011;65881;52.438;16.744;2024-01-07T08:57:22;5.00;;;3.97;;
76935;SDS011;65881;52.438;16.744;2024-01-07T08:59:47;6.68;;;4.07;;
76935;SDS011;65881;52.438;16.744;2024-01-07T09:02:13;4.40;;;3.45;;
76935;SDS011;65881;52.438;16.744;2024-01-07T09:04:39;6.35;;;3.95;;
76935;SDS011;65881;52.438;16.744;2024-01-07T09:07:04;6.95;;;4.70;;
76935;SDS011;65881;52.438;16.744;2024-01-07T09:09:30;5.05;;;3.90;;
76935;SDS011;65881;52.438;16.744;2024-01-07T09:11:56;3.67;;;3.20;;
76935;SDS011;65881;52.438;16.744;2024-01-07T09:14:24;9.57;;;5.43;;
76935;SDS011;65881;52.438;16.744;2024-01-07T09:16:50;8.13;;;3.88;;
76935;SDS011;65881;52.438;16.744;2024-01-07T09:19:16;6.38;;;4.53;;
76935;SDS011;65881;52.438;16.744;2024-01-07T09:21:42;4.78;;;4.28;;
76935;SDS011;65881;52.438;16.744;2024-01-07T09:24:08;4.20;;;3.47;;
76935;SDS011;65881;52.438;16.744;2024-01-07T09:26:34;7.22;;;4.30;;
76935;SDS011;65881;52.438;16.744;2024-01-07T09:29:00;9.38;;;5.53;;
76935;SDS011;65881;52.438;16.744;2024-01-07T09:31:26;5.95;;;4.43;;
76935;SDS011;65881;52.438;16.744;2024-01-07T09:33:52;7.90;;;4.65;;
76935;SDS011;65881;52.438;16.744;2024-01-07T09:36:18;6.15;;;4.03;;
76935;SDS011;65881;52.438;16.744;2024-01-07T09:38:43;9.05;;;6.13;;
76935;SDS011;65881;52.438;16.744;2024-01-07T09:41:09;8.30;;;4.43;;
76935;SDS011;65881;52.438;16.744;2024-01-07T09:43:35;5.03;;;3.83;;
76935;SDS011;65881;52.438;16.744;2024-01-07T09:46:02;10.00;;;5.93;;
76935;SDS011;65881;52.438;16.744;2024-01-07T09:48:28;9.68;;;4.90;;
76935;SDS011;65881;52.438;16.744;2024-01-07T09:50:54;9.55;;;5.30;;
76935;SDS011;65881;52.438;16.744;2024-01-07T09:53:22;9.18;;;5.05;;
76935;SDS011;65881;52.438;16.744;2024-01-07T09:56:01;10.68;;;6.60;;
76935;SDS011;65881;52.438;16.744;2024-01-07T09:58:41;9.88;;;5.78;;
76935;SDS011;65881;52.438;16.744;2024-01-07T10:01:08;13.85;;;6.97;;
76935;SDS011;65881;52.438;16.744;2024-01-07T10:03:34;11.40;;;7.38;;
76935;SDS011;65881;52.438;16.744;2024-01-07T10:05:59;9.95;;;5.50;;
76935;SDS011;65881;52.438;16.744;2024-01-07T10:08:25;10.98;;;7.25;;
76935;SDS011;65881;52.438;16.744;2024-01-07T10:10:50;8.27;;;4.97;;
76935;SDS011;65881;52.438;16.744;2024-01-07T10:13:16;15.15;;;6.70;;
76935;SDS011;65881;52.438;16.744;2024-01-07T10:15:42;12.25;;;6.63;;
76935;SDS011;65881;52.438;16.744;2024-01-07T10:18:07;12.85;;;8.20;;
76935;SDS011;65881;52.438;16.744;2024-01-07T10:20:33;14.40;;;7.13;;
76935;SDS011;65881;52.438;16.744;2024-01-07T10:23:00;15.77;;;7.03;;
76935;SDS011;65881;52.438;16.744;2024-01-07T10:25:36;10.38;;;7.50;;
76935;SDS011;65881;52.438;16.744;2024-01-07T10:28:27;8.02;;;5.20;;
76935;SDS011;65881;52.438;16.744;2024-01-07T10:30:53;9.65;;;5.25;;
76935;SDS011;65881;52.438;16.744;2024-01-07T10:33:18;10.75;;;5.78;;
76935;SDS011;65881;52.438;16.744;2024-01-07T10:35:48;8.15;;;5.85;;
76935;SDS011;65881;52.438;16.744;2024-01-07T10:38:21;11.77;;;6.93;;
76935;SDS011;65881;52.438;16.744;2024-01-07T10:40:48;8.02;;;5.63;;
76935;SDS011;65881;52.438;16.744;2024-01-07T10:43:17;13.27;;;6.22;;
76935;SDS011;65881;52.438;16.744;2024-01-07T10:45:44;8.90;;;6.32;;
76935;SDS011;65881;52.438;16.744;2024-01-07T10:48:17;10.38;;;5.78;;
76935;SDS011;65881;52.438;16.744;2024-01-07T10:50:44;13.63;;;6.35;;
76935;SDS011;65881;52.438;16.744;2024-01-07T10:53:12;8.43;;;5.68;;
76935;SDS011;65881;52.438;16.744;2024-01-07T10:55:49;12.77;;;6.97;;
76935;SDS011;65881;52.438;16.744;2024-01-07T10:58:20;11.38;;;6.78;;
76935;SDS011;65881;52.438;16.744;2024-01-07T11:00:48;10.38;;;5.55;;
76935;SDS011;65881;52.438;16.744;2024-01-07T11:03:18;8.65;;;4.65;;
76935;SDS011;65881;52.438;16.744;2024-01-07T11:06:03;8.77;;;4.85;;
76935;SDS011;65881;52.438;16.744;2024-01-07T11:09:06;4.43;;;3.22;;
76935;SDS011;65881;52.438;16.744;2024-01-07T11:11:46;10.52;;;5.00;;
76935;SDS011;65881;52.438;16.744;2024-01-07T11:16:57;9.80;;;5.50;;
76935;SDS011;65881;52.438;16.744;2024-01-07T11:19:22;7.82;;;5.57;;
76935;SDS011;65881;52.438;16.744;2024-01-07T11:21:49;10.60;;;7.40;;
76935;SDS011;65881;52.438;16.744;2024-01-07T11:27:03;15.77;;;6.93;;
76935;SDS011;65881;52.438;16.744;2024-01-07T11:29:31;7.50;;;5.50;;
76935;SDS011;65881;52.438;16.744;2024-01-07T11:31:56;10.52;;;5.53;;
76935;SDS011;65881;52.438;16.744;2024-01-07T11:37:14;12.07;;;5.88;;
76935;SDS011;65881;52.438;16.744;2024-01-07T11:39:43;11.00;;;7.35;;
76935;SDS011;65881;52.438;16.744;2024-01-07T11:42:10;8.02;;;4.75;;
76935;SDS011;65881;52.438;16.744;2024-01-07T11:44:37;13.43;;;5.13;;
76935;SDS011;65881;52.438;16.744;2024-01-07T11:47:14;11.85;;;5.82;;
76935;SDS011;65881;52.438;16.744;2024-01-07T11:49:42;10.40;;;5.40;;
76935;SDS011;65881;52.438;16.744;2024-01-07T11:52:08;7.72;;;5.82;;
76935;SDS011;65881;52.438;16.744;2024-01-07T11:54:35;10.75;;;6.43;;
76935;SDS011;65881;52.438;16.744;2024-01-07T11:57:05;9.82;;;6.93;;
76935;SDS011;65881;52.438;16.744;2024-01-07T11:59:31;10.63;;;6.25;;
76935;SDS011;65881;52.438;16.744;2024-01-07T12:01:59;10.98;;;8.18;;
76935;SDS011;65881;52.438;16.744;2024-01-07T12:04:33;7.45;;;5.22;;
76935;SDS011;65881;52.438;16.744;2024-01-07T12:06:59;11.35;;;5.80;;
76935;SDS011;65881;52.438;16.744;2024-01-07T12:09:29;9.48;;;7.55;;
76935;SDS011;65881;52.438;16.744;2024-01-07T12:11:56;11.07;;;6.97;;
76935;SDS011;65881;52.438;16.744;2024-01-07T12:14:22;10.88;;;5.80;;
76935;SDS011;65881;52.438;16.744;2024-01-07T12:16:48;13.18;;;6.85;;
76935;SDS011;65881;52.438;16.744;2024-01-07T12:19:14;10.82;;;8.80;;
76935;SDS011;65881;52.438;16.744;2024-01-07T12:21:39;10.82;;;5.90;;
76935;SDS011;65881;52.438;16.744;2024-01-07T12:24:05;8.35;;;5.22;;
76935;SDS011;65881;52.438;16.744;2024-01-07T12:26:31;9.85;;;5.93;;
76935;SDS011;65881;52.438;16.744;2024-01-07T12:31:37;9.80;;;6.15;;
76935;SDS011;65881;52.438;16.744;2024-01-07T12:34:05;15.48;;;6.97;;
76935;SDS011;65881;52.438;16.744;2024-01-07T12:36:34;9.25;;;5.13;;
76935;SDS011;65881;52.438;16.744;2024-01-07T12:39:00;10.68;;;6.95;;
76935;SDS011;65881;52.438;16.744;2024-01-07T12:41:32;7.07;;;5.60;;
76935;SDS011;65881;52.438;16.744;2024-01-07T12:44:07;11.48;;;7.25;;
76935;SDS011;65881;52.438;16.744;2024-01-07T12:46:34;10.02;;;4.95;;
76935;SDS011;65881;52.438;16.744;2024-01-07T12:49:00;15.05;;;7.88;;
76935;SDS011;65881;52.438;16.744;2024-01-07T12:51:28;10.20;;;6.70;;
76935;SDS011;65881;52.438;16.744;2024-01-07T12:53:56;13.82;;;6.57;;
76935;SDS011;65881;52.438;16.744;2024-01-07T12:56:21;10.23;;;5.35;;
76935;SDS011;65881;52.438;16.744;2024-01-07T12:58:49;8.15;;;5.68;;
76935;SDS011;65881;52.438;16.744;2024-01-07T13:01:14;11.77;;;6.68;;
76935;SDS011;65881;52.438;16.744;2024-01-07T13:03:40;8.10;;;5.30;;
76935;SDS011;65881;52.438;16.744;2024-01-07T13:06:06;9.27;;;5.35;;
76935;SDS011;65881;52.438;16.744;2024-01-07T13:08:33;7.68;;;4.32;;
76935;SDS011;65881;52.438;16.744;2024-01-07T13:11:01;8.45;;;5.05;;
76935;SDS011;65881;52.438;16.744;2024-01-07T13:13:29;10.73;;;5.93;;
76935;SDS011;65881;52.438;16.744;2024-01-07T13:15:56;13.23;;;6.32;;
76935;SDS011;65881;52.438;16.744;2024-01-07T13:18:26;7.32;;;4.70;;
76935;SDS011;65881;52.438;16.744;2024-01-07T13:20:51;11.15;;;7.20;;
76935;SDS011;65881;52.438;16.744;2024-01-07T13:23:17;15.35;;;6.25;;
76935;SDS011;65881;52.438;16.744;2024-01-07T13:25:44;12.88;;;6.00;;
76935;SDS011;65881;52.438;16.744;2024-01-07T13:28:09;9.20;;;6.97;;
76935;SDS011;65881;52.438;16.744;2024-01-07T13:30:38;9.82;;;5.75;;
76935;SDS011;65881;52.438;16.744;2024-01-07T13:33:05;11.35;;;6.60;;
76935;SDS011;65881;52.438;16.744;2024-01-07T13:35:31;9.57;;;7.63;;
76935;SDS011;65881;52.438;16.744;2024-01-07T13:37:57;19.83;;;6.85;;
76935;SDS011;65881;52.438;16.744;2024-01-07T13:40:23;7.82;;;5.40;;
76935;SDS011;65881;52.438;16.744;2024-01-07T13:42:50;10.30;;;5.78;;
76935;SDS011;65881;52.438;16.744;2024-01-07T13:45:20;9.90;;;5.35;;
76935;SDS011;65881;52.438;16.744;2024-01-07T13:47:48;9.98;;;6.28;;
76935;SDS011;65881;52.438;16.744;2024-01-07T13:50:16;10.27;;;5.50;;
76935;SDS011;65881;52.438;16.744;2024-01-07T13:52:43;8.55;;;6.28;;
76935;SDS011;65881;52.438;16.744;2024-01-07T13:55:08;7.05;;;6.13;;
76935;SDS011;65881;52.438;16.744;2024-01-07T13:57:38;11.63;;;6.25;;
76935;SDS011;65881;52.438;16.744;2024-01-07T14:00:06;9.43;;;5.60;;
76935;SDS011;65881;52.438;16.744;2024-01-07T14:02:39;7.53;;;4.82;;
76935;SDS011;65881;52.438;16.744;2024-01-07T14:05:05;7.80;;;5.30;;
76935;SDS011;65881;52.438;16.744;2024-01-07T14:07:32;10.65;;;5.88;;
76935;SDS011;65881;52.438;16.744;2024-01-07T14:09:58;11.32;;;7.80;;
76935;SDS011;65881;52.438;16.744;2024-01-07T14:12:27;12.55;;;8.05;;
76935;SDS011;65881;52.438;16.744;2024-01-07T14:14:52;12.45;;;6.10;;
76935;SDS011;65881;52.438;16.744;2024-01-07T14:17:18;7.07;;;5.68;;
76935;SDS011;65881;52.438;16.744;2024-01-07T14:19:46;11.95;;;6.93;;
76935;SDS011;65881;52.438;16.744;2024-01-07T14:22:21;12.75;;;7.88;;
76935;SDS011;65881;52.438;16.744;2024-01-07T14:24:47;15.50;;;7.40;;
76935;SDS011;65881;52.438;16.744;2024-01-07T14:27:15;11.15;;;5.40;;
76935;SDS011;65881;52.438;16.744;2024-01-07T14:29:42;11.45;;;7.03;;
76935;SDS011;65881;52.438;16.744;2024-01-07T14:32:07;14.88;;;6.63;;
76935;SDS011;65881;52.438;16.744;2024-01-07T14:34:33;7.47;;;5.22;;
76935;SDS011;65881;52.438;16.744;2024-01-07T14:36:59;9.00;;;6.70;;
76935;SDS011;65881;52.438;16.744;2024-01-07T14:39:25;9.95;;;4.90;;